This is the latest recevied weather packets stored in our database for station/object DK4SDR-10. If no packets are shown the sender has not sent any weather packets the latest 10 day(s).
| Time | Temp. | Humidity | Pressure | Rain* | Wind** | Luminosity | Snow |
|---|---|---|---|---|---|---|---|
| 1777537708 | 9.44° C | 32% | 1029.1 hPa | - | - | - | - |
| 1777536807 | 8.89° C | 34% | 1029.2 hPa | - | - | - | - |
| 1777535908 | 8.89° C | 36% | 1029.2 hPa | - | - | - | - |
| 1777532307 | 7.78° C | 37% | 1029.4 hPa | - | - | - | - |
| 1777531407 | 7.78° C | 37% | 1029.3 hPa | - | - | - | - |
| 1777530507 | 7.78° C | 37% | 1029.3 hPa | - | - | - | - |
| 1777529608 | 7.78° C | 38% | 1029.3 hPa | - | - | - | - |
| 1777528708 | 7.78° C | 38% | 1029.2 hPa | - | - | - | - |
| 1777527808 | 7.78° C | 38% | 1029.3 hPa | - | - | - | - |
| 1777526907 | 7.78° C | 38% | 1029.1 hPa | - | - | - | - |
| 1777526007 | 7.78° C | 38% | 1029 hPa | - | - | - | - |
| 1777525107 | 8.33° C | 38% | 1028.8 hPa | - | - | - | - |
| 1777524208 | 8.33° C | 38% | 1028.8 hPa | - | - | - | - |
| 1777523307 | 8.33° C | 38% | 1028.7 hPa | - | - | - | - |
| 1777522407 | 8.33° C | 38% | 1028.6 hPa | - | - | - | - |
| 1777521507 | 8.89° C | 37% | 1028.5 hPa | - | - | - | - |
| 1777520607 | 8.89° C | 37% | 1028.5 hPa | - | - | - | - |
| 1777519707 | 8.89° C | 37% | 1028.4 hPa | - | - | - | - |
| 1777518807 | 9.44° C | 37% | 1028.3 hPa | - | - | - | - |
| 1777517907 | 9.44° C | 37% | 1028.3 hPa | - | - | - | - |
| 1777517007 | 9.44° C | 36% | 1028.2 hPa | - | - | - | - |
| 1777516107 | 10° C | 36% | 1028.1 hPa | - | - | - | - |
| 1777515207 | 10° C | 36% | 1028.1 hPa | - | - | - | - |
| 1777514307 | 10° C | 36% | 1028.1 hPa | - | - | - | - |
| 1777513407 | 10.56° C | 35% | 1028 hPa | - | - | - | - |
* Rain since midnight (hover to see other rain measurements)
** Current wind speed in m/s (hover to see current wind gust speed)